sensor_id;sensor_type;location;lat;lon;timestamp;P1;durP1;ratioP1;P2;durP2;ratioP2
57433;SDS011;43277;52.672;6.984;2023-05-31T00:01:13;8.93;;;6.03;;
57433;SDS011;43277;52.672;6.984;2023-05-31T00:03:38;9.52;;;6.22;;
57433;SDS011;43277;52.672;6.984;2023-05-31T00:06:09;10.82;;;6.00;;
57433;SDS011;43277;52.672;6.984;2023-05-31T00:08:35;10.15;;;6.65;;
57433;SDS011;43277;52.672;6.984;2023-05-31T00:11:01;10.20;;;6.57;;
57433;SDS011;43277;52.672;6.984;2023-05-31T00:13:26;10.82;;;6.35;;
57433;SDS011;43277;52.672;6.984;2023-05-31T00:15:52;11.05;;;6.88;;
57433;SDS011;43277;52.672;6.984;2023-05-31T00:18:17;9.48;;;6.15;;
57433;SDS011;43277;52.672;6.984;2023-05-31T00:20:43;11.57;;;7.60;;
57433;SDS011;43277;52.672;6.984;2023-05-31T00:23:09;10.57;;;7.15;;
57433;SDS011;43277;52.672;6.984;2023-05-31T00:25:35;10.48;;;7.07;;
57433;SDS011;43277;52.672;6.984;2023-05-31T00:28:01;13.98;;;8.27;;
57433;SDS011;43277;52.672;6.984;2023-05-31T00:30:26;11.52;;;8.02;;
57433;SDS011;43277;52.672;6.984;2023-05-31T00:32:52;11.60;;;7.43;;
57433;SDS011;43277;52.672;6.984;2023-05-31T00:35:17;9.30;;;6.68;;
57433;SDS011;43277;52.672;6.984;2023-05-31T00:37:43;9.65;;;7.13;;
57433;SDS011;43277;52.672;6.984;2023-05-31T00:40:08;10.40;;;6.95;;
57433;SDS011;43277;52.672;6.984;2023-05-31T00:42:34;10.80;;;7.10;;
57433;SDS011;43277;52.672;6.984;2023-05-31T00:45:00;12.80;;;8.10;;
57433;SDS011;43277;52.672;6.984;2023-05-31T00:47:26;11.60;;;7.85;;
57433;SDS011;43277;52.672;6.984;2023-05-31T00:49:53;9.95;;;7.43;;
57433;SDS011;43277;52.672;6.984;2023-05-31T00:52:20;12.50;;;8.55;;
57433;SDS011;43277;52.672;6.984;2023-05-31T00:54:47;12.57;;;8.52;;
57433;SDS011;43277;52.672;6.984;2023-05-31T00:57:13;12.48;;;8.57;;
57433;SDS011;43277;52.672;6.984;2023-05-31T00:59:39;13.23;;;8.70;;
57433;SDS011;43277;52.672;6.984;2023-05-31T01:02:06;10.32;;;8.07;;
57433;SDS011;43277;52.672;6.984;2023-05-31T01:04:32;13.15;;;9.30;;
57433;SDS011;43277;52.672;6.984;2023-05-31T01:06:59;10.98;;;8.88;;
57433;SDS011;43277;52.672;6.984;2023-05-31T01:09:25;12.77;;;9.00;;
57433;SDS011;43277;52.672;6.984;2023-05-31T01:11:55;10.48;;;7.78;;
57433;SDS011;43277;52.672;6.984;2023-05-31T01:20:06;12.65;;;8.60;;
57433;SDS011;43277;52.672;6.984;2023-05-31T01:25:57;14.23;;;9.65;;
57433;SDS011;43277;52.672;6.984;2023-05-31T01:28:32;13.32;;;10.02;;
57433;SDS011;43277;52.672;6.984;2023-05-31T01:31:02;11.65;;;8.65;;
57433;SDS011;43277;52.672;6.984;2023-05-31T01:33:30;10.27;;;7.57;;
57433;SDS011;43277;52.672;6.984;2023-05-31T01:35:56;16.50;;;10.52;;
57433;SDS011;43277;52.672;6.984;2023-05-31T01:38:22;12.57;;;9.30;;
57433;SDS011;43277;52.672;6.984;2023-05-31T01:40:48;11.95;;;8.02;;
57433;SDS011;43277;52.672;6.984;2023-05-31T01:43:14;16.33;;;10.45;;
57433;SDS011;43277;52.672;6.984;2023-05-31T01:45:40;11.02;;;7.57;;
57433;SDS011;43277;52.672;6.984;2023-05-31T01:48:07;14.85;;;10.30;;
57433;SDS011;43277;52.672;6.984;2023-05-31T01:50:35;14.88;;;9.73;;
57433;SDS011;43277;52.672;6.984;2023-05-31T01:53:02;16.15;;;10.02;;
57433;SDS011;43277;52.672;6.984;2023-05-31T01:55:28;12.57;;;9.63;;
57433;SDS011;43277;52.672;6.984;2023-05-31T01:57:54;16.85;;;10.55;;
57433;SDS011;43277;52.672;6.984;2023-05-31T02:00:21;12.60;;;9.40;;
57433;SDS011;43277;52.672;6.984;2023-05-31T02:02:49;15.75;;;10.43;;
57433;SDS011;43277;52.672;6.984;2023-05-31T02:05:16;14.55;;;9.95;;
57433;SDS011;43277;52.672;6.984;2023-05-31T02:07:42;17.42;;;10.43;;
57433;SDS011;43277;52.672;6.984;2023-05-31T02:10:09;16.40;;;10.23;;
57433;SDS011;43277;52.672;6.984;2023-05-31T02:12:36;15.43;;;10.45;;
57433;SDS011;43277;52.672;6.984;2023-05-31T02:15:02;15.68;;;10.85;;
57433;SDS011;43277;52.672;6.984;2023-05-31T02:17:28;16.33;;;10.85;;
57433;SDS011;43277;52.672;6.984;2023-05-31T02:19:58;15.15;;;10.70;;
57433;SDS011;43277;52.672;6.984;2023-05-31T02:22:24;15.82;;;11.55;;
57433;SDS011;43277;52.672;6.984;2023-05-31T02:24:49;17.30;;;11.75;;
57433;SDS011;43277;52.672;6.984;2023-05-31T02:27:16;19.35;;;11.93;;
57433;SDS011;43277;52.672;6.984;2023-05-31T02:29:41;14.48;;;9.88;;
57433;SDS011;43277;52.672;6.984;2023-05-31T02:32:10;14.68;;;10.63;;
57433;SDS011;43277;52.672;6.984;2023-05-31T02:34:36;14.85;;;10.40;;
57433;SDS011;43277;52.672;6.984;2023-05-31T02:37:02;17.10;;;11.32;;
57433;SDS011;43277;52.672;6.984;2023-05-31T02:39:28;15.90;;;11.13;;
57433;SDS011;43277;52.672;6.984;2023-05-31T02:41:53;16.23;;;11.50;;
57433;SDS011;43277;52.672;6.984;2023-05-31T02:44:20;19.13;;;12.65;;
57433;SDS011;43277;52.672;6.984;2023-05-31T02:46:46;23.25;;;14.07;;
57433;SDS011;43277;52.672;6.984;2023-05-31T02:49:11;17.73;;;12.32;;
57433;SDS011;43277;52.672;6.984;2023-05-31T02:51:37;25.10;;;14.38;;
57433;SDS011;43277;52.672;6.984;2023-05-31T02:54:02;25.90;;;15.77;;
57433;SDS011;43277;52.672;6.984;2023-05-31T02:56:28;20.58;;;13.55;;
57433;SDS011;43277;52.672;6.984;2023-05-31T02:58:53;17.83;;;12.15;;
57433;SDS011;43277;52.672;6.984;2023-05-31T03:01:19;19.35;;;12.90;;
57433;SDS011;43277;52.672;6.984;2023-05-31T03:03:45;19.38;;;12.68;;
57433;SDS011;43277;52.672;6.984;2023-05-31T03:06:10;25.13;;;14.85;;
57433;SDS011;43277;52.672;6.984;2023-05-31T03:08:41;22.20;;;14.23;;
57433;SDS011;43277;52.672;6.984;2023-05-31T03:11:07;22.38;;;13.55;;
57433;SDS011;43277;52.672;6.984;2023-05-31T03:13:33;17.17;;;12.25;;
57433;SDS011;43277;52.672;6.984;2023-05-31T03:15:58;20.38;;;12.85;;
57433;SDS011;43277;52.672;6.984;2023-05-31T03:18:25;22.50;;;14.25;;
57433;SDS011;43277;52.672;6.984;2023-05-31T03:20:51;25.75;;;14.85;;
57433;SDS011;43277;52.672;6.984;2023-05-31T03:23:16;25.25;;;14.55;;
57433;SDS011;43277;52.672;6.984;2023-05-31T03:25:42;20.17;;;13.63;;
57433;SDS011;43277;52.672;6.984;2023-05-31T03:28:08;23.83;;;15.00;;
57433;SDS011;43277;52.672;6.984;2023-05-31T03:30:33;19.80;;;13.07;;
57433;SDS011;43277;52.672;6.984;2023-05-31T03:32:59;25.27;;;15.38;;
57433;SDS011;43277;52.672;6.984;2023-05-31T03:35:25;26.48;;;15.55;;
57433;SDS011;43277;52.672;6.984;2023-05-31T03:37:51;28.73;;;16.48;;
57433;SDS011;43277;52.672;6.984;2023-05-31T03:40:18;27.15;;;16.38;;
57433;SDS011;43277;52.672;6.984;2023-05-31T03:42:43;24.15;;;14.82;;
57433;SDS011;43277;52.672;6.984;2023-05-31T03:45:09;29.48;;;17.05;;
57433;SDS011;43277;52.672;6.984;2023-05-31T03:47:34;25.13;;;15.75;;
57433;SDS011;43277;52.672;6.984;2023-05-31T03:50:00;24.08;;;14.73;;
57433;SDS011;43277;52.672;6.984;2023-05-31T03:52:27;29.27;;;15.73;;
57433;SDS011;43277;52.672;6.984;2023-05-31T03:54:53;33.00;;;17.98;;
57433;SDS011;43277;52.672;6.984;2023-05-31T03:57:19;24.38;;;15.82;;
57433;SDS011;43277;52.672;6.984;2023-05-31T03:59:44;25.30;;;15.60;;
57433;SDS011;43277;52.672;6.984;2023-05-31T04:02:10;20.60;;;12.90;;
57433;SDS011;43277;52.672;6.984;2023-05-31T04:04:36;32.30;;;16.23;;
57433;SDS011;43277;52.672;6.984;2023-05-31T04:07:01;33.33;;;17.70;;
57433;SDS011;43277;52.672;6.984;2023-05-31T04:09:27;28.13;;;16.00;;
57433;SDS011;43277;52.672;6.984;2023-05-31T04:11:52;41.25;;;19.33;;
57433;SDS011;43277;52.672;6.984;2023-05-31T04:14:18;25.23;;;15.60;;
57433;SDS011;43277;52.672;6.984;2023-05-31T04:16:44;23.55;;;14.82;;
57433;SDS011;43277;52.672;6.984;2023-05-31T04:19:09;29.00;;;16.30;;
57433;SDS011;43277;52.672;6.984;2023-05-31T04:21:35;25.48;;;15.27;;
57433;SDS011;43277;52.672;6.984;2023-05-31T04:24:01;24.73;;;15.43;;
57433;SDS011;43277;52.672;6.984;2023-05-31T04:26:27;22.48;;;13.65;;
57433;SDS011;43277;52.672;6.984;2023-05-31T04:28:54;25.42;;;15.18;;
57433;SDS011;43277;52.672;6.984;2023-05-31T04:31:20;23.23;;;15.02;;
57433;SDS011;43277;52.672;6.984;2023-05-31T04:33:49;22.27;;;13.48;;
57433;SDS011;43277;52.672;6.984;2023-05-31T04:36:16;25.02;;;15.05;;
57433;SDS011;43277;52.672;6.984;2023-05-31T04:38:41;21.02;;;13.32;;
57433;SDS011;43277;52.672;6.984;2023-05-31T04:41:07;23.50;;;15.15;;
57433;SDS011;43277;52.672;6.984;2023-05-31T04:43:34;24.40;;;14.02;;
57433;SDS011;43277;52.672;6.984;2023-05-31T04:45:59;30.33;;;15.27;;
57433;SDS011;43277;52.672;6.984;2023-05-31T04:48:25;22.35;;;14.23;;
57433;SDS011;43277;52.672;6.984;2023-05-31T04:50:52;33.65;;;17.23;;
57433;SDS011;43277;52.672;6.984;2023-05-31T04:53:20;20.90;;;13.77;;
57433;SDS011;43277;52.672;6.984;2023-05-31T04:55:46;25.42;;;15.00;;
57433;SDS011;43277;52.672;6.984;2023-05-31T04:58:12;23.35;;;14.55;;
57433;SDS011;43277;52.672;6.984;2023-05-31T05:00:37;17.73;;;12.93;;
57433;SDS011;43277;52.672;6.984;2023-05-31T05:03:03;30.98;;;16.90;;
57433;SDS011;43277;52.672;6.984;2023-05-31T05:05:29;22.40;;;13.50;;
57433;SDS011;43277;52.672;6.984;2023-05-31T05:07:54;19.77;;;13.27;;
57433;SDS011;43277;52.672;6.984;2023-05-31T05:10:20;24.25;;;14.77;;
57433;SDS011;43277;52.672;6.984;2023-05-31T05:12:46;26.05;;;16.48;;
57433;SDS011;43277;52.672;6.984;2023-05-31T05:15:11;18.73;;;12.63;;
57433;SDS011;43277;52.672;6.984;2023-05-31T05:17:37;17.90;;;11.55;;
57433;SDS011;43277;52.672;6.984;2023-05-31T05:20:02;15.50;;;10.82;;
57433;SDS011;43277;52.672;6.984;2023-05-31T05:22:30;22.38;;;14.07;;
57433;SDS011;43277;52.672;6.984;2023-05-31T05:24:55;25.98;;;15.40;;
57433;SDS011;43277;52.672;6.984;2023-05-31T05:27:21;23.00;;;15.13;;
57433;SDS011;43277;52.672;6.984;2023-05-31T05:29:47;21.73;;;14.50;;
57433;SDS011;43277;52.672;6.984;2023-05-31T05:32:12;27.85;;;16.77;;
57433;SDS011;43277;52.672;6.984;2023-05-31T05:34:38;21.05;;;13.40;;
57433;SDS011;43277;52.672;6.984;2023-05-31T05:37:04;25.60;;;15.43;;
57433;SDS011;43277;52.672;6.984;2023-05-31T05:39:30;18.98;;;13.30;;
57433;SDS011;43277;52.672;6.984;2023-05-31T05:41:56;21.35;;;13.73;;
57433;SDS011;43277;52.672;6.984;2023-05-31T05:44:22;22.13;;;14.57;;
57433;SDS011;43277;52.672;6.984;2023-05-31T05:46:47;23.42;;;14.48;;
57433;SDS011;43277;52.672;6.984;2023-05-31T05:49:13;28.00;;;17.40;;
57433;SDS011;43277;52.672;6.984;2023-05-31T05:51:38;25.77;;;15.15;;
57433;SDS011;43277;52.672;6.984;2023-05-31T05:54:04;27.17;;;15.32;;
57433;SDS011;43277;52.672;6.984;2023-05-31T05:56:30;22.85;;;15.02;;
57433;SDS011;43277;52.672;6.984;2023-05-31T05:58:56;24.38;;;14.52;;
57433;SDS011;43277;52.672;6.984;2023-05-31T06:01:22;24.42;;;14.80;;
57433;SDS011;43277;52.672;6.984;2023-05-31T06:03:49;24.17;;;14.75;;
57433;SDS011;43277;52.672;6.984;2023-05-31T06:06:15;20.75;;;13.57;;
57433;SDS011;43277;52.672;6.984;2023-05-31T06:08:42;20.73;;;14.55;;
57433;SDS011;43277;52.672;6.984;2023-05-31T06:11:08;21.58;;;13.57;;
57433;SDS011;43277;52.672;6.984;2023-05-31T06:13:34;22.42;;;13.32;;
57433;SDS011;43277;52.672;6.984;2023-05-31T06:16:00;20.75;;;12.93;;
57433;SDS011;43277;52.672;6.984;2023-05-31T06:18:26;20.05;;;12.82;;
57433;SDS011;43277;52.672;6.984;2023-05-31T06:20:52;17.42;;;12.07;;
57433;SDS011;43277;52.672;6.984;2023-05-31T06:23:20;17.85;;;11.35;;
57433;SDS011;43277;52.672;6.984;2023-05-31T06:25:46;22.20;;;12.30;;
57433;SDS011;43277;52.672;6.984;2023-05-31T06:28:11;18.42;;;11.90;;
57433;SDS011;43277;52.672;6.984;2023-05-31T06:30:37;16.95;;;11.60;;
57433;SDS011;43277;52.672;6.984;2023-05-31T06:33:03;19.38;;;12.18;;
57433;SDS011;43277;52.672;6.984;2023-05-31T06:35:28;19.25;;;11.30;;
57433;SDS011;43277;52.672;6.984;2023-05-31T06:37:54;16.83;;;11.88;;
57433;SDS011;43277;52.672;6.984;2023-05-31T06:40:20;22.40;;;12.18;;
57433;SDS011;43277;52.672;6.984;2023-05-31T06:42:46;18.55;;;11.63;;
57433;SDS011;43277;52.672;6.984;2023-05-31T06:45:11;18.30;;;11.13;;
57433;SDS011;43277;52.672;6.984;2023-05-31T06:47:37;19.88;;;11.05;;
57433;SDS011;43277;52.672;6.984;2023-05-31T06:50:02;18.63;;;11.68;;
57433;SDS011;43277;52.672;6.984;2023-05-31T06:52:28;20.13;;;11.73;;
57433;SDS011;43277;52.672;6.984;2023-05-31T06:54:54;18.88;;;11.73;;
57433;SDS011;43277;52.672;6.984;2023-05-31T06:57:19;18.98;;;11.10;;
57433;SDS011;43277;52.672;6.984;2023-05-31T06:59:45;16.95;;;11.02;;
57433;SDS011;43277;52.672;6.984;2023-05-31T07:02:10;18.05;;;10.45;;
57433;SDS011;43277;52.672;6.984;2023-05-31T07:04:36;16.30;;;10.52;;
57433;SDS011;43277;52.672;6.984;2023-05-31T07:07:02;18.85;;;11.25;;
57433;SDS011;43277;52.672;6.984;2023-05-31T07:09:28;16.83;;;11.15;;
57433;SDS011;43277;52.672;6.984;2023-05-31T07:11:54;14.38;;;10.32;;
57433;SDS011;43277;52.672;6.984;2023-05-31T07:14:20;19.70;;;10.05;;
57433;SDS011;43277;52.672;6.984;2023-05-31T07:16:47;16.08;;;9.68;;
57433;SDS011;43277;52.672;6.984;2023-05-31T07:19:13;17.23;;;9.23;;
57433;SDS011;43277;52.672;6.984;2023-05-31T07:21:38;15.02;;;9.05;;
57433;SDS011;43277;52.672;6.984;2023-05-31T07:24:04;15.27;;;9.48;;
57433;SDS011;43277;52.672;6.984;2023-05-31T07:26:30;16.88;;;8.70;;
57433;SDS011;43277;52.672;6.984;2023-05-31T07:28:55;12.50;;;8.68;;
57433;SDS011;43277;52.672;6.984;2023-05-31T07:31:21;14.68;;;8.25;;
57433;SDS011;43277;52.672;6.984;2023-05-31T07:33:47;15.70;;;8.35;;
57433;SDS011;43277;52.672;6.984;2023-05-31T07:36:13;11.70;;;8.63;;
57433;SDS011;43277;52.672;6.984;2023-05-31T07:38:38;14.77;;;8.48;;
57433;SDS011;43277;52.672;6.984;2023-05-31T07:41:04;15.52;;;8.25;;
57433;SDS011;43277;52.672;6.984;2023-05-31T07:43:30;13.23;;;7.55;;
57433;SDS011;43277;52.672;6.984;2023-05-31T07:45:56;12.38;;;7.10;;
57433;SDS011;43277;52.672;6.984;2023-05-31T07:48:22;11.80;;;7.53;;
57433;SDS011;43277;52.672;6.984;2023-05-31T07:50:49;12.88;;;6.95;;
57433;SDS011;43277;52.672;6.984;2023-05-31T07:53:15;14.45;;;7.10;;
57433;SDS011;43277;52.672;6.984;2023-05-31T07:55:42;12.73;;;6.90;;
57433;SDS011;43277;52.672;6.984;2023-05-31T07:58:09;12.52;;;6.47;;
57433;SDS011;43277;52.672;6.984;2023-05-31T08:00:38;12.10;;;6.22;;
57433;SDS011;43277;52.672;6.984;2023-05-31T08:03:04;13.27;;;6.60;;
57433;SDS011;43277;52.672;6.984;2023-05-31T08:05:30;11.05;;;6.35;;
57433;SDS011;43277;52.672;6.984;2023-05-31T08:07:56;12.10;;;6.70;;
57433;SDS011;43277;52.672;6.984;2023-05-31T08:10:22;11.88;;;6.68;;
57433;SDS011;43277;52.672;6.984;2023-05-31T08:12:47;15.57;;;6.95;;
57433;SDS011;43277;52.672;6.984;2023-05-31T08:15:13;10.65;;;5.70;;
57433;SDS011;43277;52.672;6.984;2023-05-31T08:17:39;11.77;;;6.50;;
57433;SDS011;43277;52.672;6.984;2023-05-31T08:20:05;10.32;;;5.40;;
57433;SDS011;43277;52.672;6.984;2023-05-31T08:22:32;11.13;;;5.50;;
57433;SDS011;43277;52.672;6.984;2023-05-31T08:24:58;13.30;;;6.30;;
57433;SDS011;43277;52.672;6.984;2023-05-31T08:27:24;11.93;;;6.05;;
57433;SDS011;43277;52.672;6.984;2023-05-31T08:29:50;13.80;;;5.75;;
57433;SDS011;43277;52.672;6.984;2023-05-31T08:32:16;15.07;;;6.07;;
57433;SDS011;43277;52.672;6.984;2023-05-31T08:34:42;13.10;;;5.82;;
57433;SDS011;43277;52.672;6.984;2023-05-31T08:37:08;14.15;;;6.32;;
57433;SDS011;43277;52.672;6.984;2023-05-31T08:39:34;16.40;;;5.85;;
57433;SDS011;43277;52.672;6.984;2023-05-31T08:42:01;12.63;;;5.20;;
57433;SDS011;43277;52.672;6.984;2023-05-31T08:44:30;13.93;;;5.18;;
57433;SDS011;43277;52.672;6.984;2023-05-31T08:46:57;13.32;;;5.45;;
57433;SDS011;43277;52.672;6.984;2023-05-31T08:49:44;11.82;;;5.80;;
57433;SDS011;43277;52.672;6.984;2023-05-31T08:52:10;13.60;;;5.65;;
57433;SDS011;43277;52.672;6.984;2023-05-31T08:54:37;14.70;;;5.75;;
57433;SDS011;43277;52.672;6.984;2023-05-31T08:57:03;11.45;;;4.55;;
57433;SDS011;43277;52.672;6.984;2023-05-31T08:59:29;12.07;;;5.32;;
57433;SDS011;43277;52.672;6.984;2023-05-31T09:01:56;10.80;;;5.10;;
57433;SDS011;43277;52.672;6.984;2023-05-31T09:04:22;11.40;;;4.35;;
57433;SDS011;43277;52.672;6.984;2023-05-31T09:06:50;12.25;;;4.57;;
57433;SDS011;43277;52.672;6.984;2023-05-31T09:09:16;11.82;;;4.60;;
57433;SDS011;43277;52.672;6.984;2023-05-31T09:11:44;10.88;;;4.75;;
57433;SDS011;43277;52.672;6.984;2023-05-31T09:14:10;13.48;;;5.22;;
57433;SDS011;43277;52.672;6.984;2023-05-31T09:16:36;13.50;;;5.13;;
57433;SDS011;43277;52.672;6.984;2023-05-31T09:19:03;14.35;;;4.97;;
57433;SDS011;43277;52.672;6.984;2023-05-31T09:21:33;11.40;;;4.22;;
57433;SDS011;43277;52.672;6.984;2023-05-31T09:24:05;14.05;;;4.13;;
57433;SDS011;43277;52.672;6.984;2023-05-31T09:26:31;11.27;;;4.60;;
57433;SDS011;43277;52.672;6.984;2023-05-31T09:28:58;11.63;;;4.90;;
57433;SDS011;43277;52.672;6.984;2023-05-31T09:31:24;12.68;;;4.78;;
57433;SDS011;43277;52.672;6.984;2023-05-31T09:33:50;12.98;;;4.75;;
57433;SDS011;43277;52.672;6.984;2023-05-31T09:36:27;11.50;;;4.50;;
57433;SDS011;43277;52.672;6.984;2023-05-31T09:41:26;12.90;;;4.30;;
57433;SDS011;43277;52.672;6.984;2023-05-31T09:43:52;11.27;;;4.57;;
57433;SDS011;43277;52.672;6.984;2023-05-31T09:46:18;10.27;;;4.75;;
57433;SDS011;43277;52.672;6.984;2023-05-31T09:48:46;12.52;;;4.85;;
57433;SDS011;43277;52.672;6.984;2023-05-31T09:51:29;10.93;;;4.40;;
57433;SDS011;43277;52.672;6.984;2023-05-31T09:53:57;11.00;;;4.38;;
57433;SDS011;43277;52.672;6.984;2023-05-31T09:56:27;15.80;;;4.40;;
57433;SDS011;43277;52.672;6.984;2023-05-31T09:58:55;13.10;;;4.55;;
57433;SDS011;43277;52.672;6.984;2023-05-31T10:01:21;12.45;;;4.25;;
57433;SDS011;43277;52.672;6.984;2023-05-31T10:03:51;9.32;;;3.50;;
57433;SDS011;43277;52.672;6.984;2023-05-31T10:06:17;12.70;;;4.45;;
57433;SDS011;43277;52.672;6.984;2023-05-31T10:08:45;10.82;;;4.35;;
57433;SDS011;43277;52.672;6.984;2023-05-31T10:11:11;10.93;;;4.20;;
57433;SDS011;43277;52.672;6.984;2023-05-31T10:13:42;11.15;;;3.90;;
57433;SDS011;43277;52.672;6.984;2023-05-31T10:16:09;11.88;;;3.97;;
57433;SDS011;43277;52.672;6.984;2023-05-31T10:18:44;12.15;;;3.63;;
57433;SDS011;43277;52.672;6.984;2023-05-31T10:21:17;10.30;;;4.03;;
57433;SDS011;43277;52.672;6.984;2023-05-31T10:24:03;11.27;;;4.78;;
57433;SDS011;43277;52.672;6.984;2023-05-31T10:29:51;11.48;;;3.90;;
57433;SDS011;43277;52.672;6.984;2023-05-31T10:32:22;8.27;;;3.75;;
57433;SDS011;43277;52.672;6.984;2023-05-31T10:34:50;12.98;;;4.15;;
57433;SDS011;43277;52.672;6.984;2023-05-31T10:37:17;10.73;;;4.00;;
57433;SDS011;43277;52.672;6.984;2023-05-31T10:39:47;10.05;;;4.15;;
57433;SDS011;43277;52.672;6.984;2023-05-31T10:42:33;10.65;;;3.50;;
57433;SDS011;43277;52.672;6.984;2023-05-31T10:48:19;10.77;;;3.45;;
57433;SDS011;43277;52.672;6.984;2023-05-31T10:50:23;12.13;;;4.03;;
57433;SDS011;43277;52.672;6.984;2023-05-31T10:52:49;11.05;;;3.70;;
57433;SDS011;43277;52.672;6.984;2023-05-31T10:55:19;9.35;;;3.80;;
57433;SDS011;43277;52.672;6.984;2023-05-31T10:57:52;9.65;;;3.78;;
57433;SDS011;43277;52.672;6.984;2023-05-31T11:00:19;11.23;;;3.40;;
57433;SDS011;43277;52.672;6.984;2023-05-31T11:02:49;8.93;;;3.35;;
57433;SDS011;43277;52.672;6.984;2023-05-31T11:05:20;10.85;;;3.80;;
57433;SDS011;43277;52.672;6.984;2023-05-31T11:10:27;10.30;;;3.63;;
57433;SDS011;43277;52.672;6.984;2023-05-31T11:13:01;8.70;;;3.47;;
57433;SDS011;43277;52.672;6.984;2023-05-31T11:15:38;10.52;;;3.45;;
57433;SDS011;43277;52.672;6.984;2023-05-31T11:18:08;10.98;;;3.70;;
57433;SDS011;43277;52.672;6.984;2023-05-31T11:20:34;11.85;;;3.53;;
57433;SDS011;43277;52.672;6.984;2023-05-31T11:25:42;8.73;;;4.00;;
57433;SDS011;43277;52.672;6.984;2023-05-31T11:28:08;9.95;;;3.60;;
57433;SDS011;43277;52.672;6.984;2023-05-31T11:30:35;8.98;;;3.55;;
57433;SDS011;43277;52.672;6.984;2023-05-31T11:33:02;9.68;;;3.20;;
57433;SDS011;43277;52.672;6.984;2023-05-31T11:35:32;8.55;;;3.13;;
57433;SDS011;43277;52.672;6.984;2023-05-31T11:38:02;10.83;;;3.80;;
57433;SDS011;43277;52.672;6.984;2023-05-31T11:40:29;11.50;;;3.70;;
57433;SDS011;43277;52.672;6.984;2023-05-31T11:43:01;9.35;;;3.40;;
57433;SDS011;43277;52.672;6.984;2023-05-31T11:45:28;9.27;;;3.50;;
57433;SDS011;43277;52.672;6.984;2023-05-31T11:48:08;10.48;;;3.40;;
57433;SDS011;43277;52.672;6.984;2023-05-31T11:50:42;8.85;;;3.67;;
57433;SDS011;43277;52.672;6.984;2023-05-31T11:53:09;10.63;;;3.55;;
57433;SDS011;43277;52.672;6.984;2023-05-31T11:55:35;10.02;;;3.22;;
57433;SDS011;43277;52.672;6.984;2023-05-31T11:58:03;8.88;;;3.25;;
57433;SDS011;43277;52.672;6.984;2023-05-31T12:00:30;8.82;;;3.40;;
57433;SDS011;43277;52.672;6.984;2023-05-31T12:02:56;8.32;;;3.15;;
57433;SDS011;43277;52.672;6.984;2023-05-31T12:05:22;11.38;;;3.40;;
57433;SDS011;43277;52.672;6.984;2023-05-31T12:07:52;11.30;;;3.83;;
57433;SDS011;43277;52.672;6.984;2023-05-31T12:12:45;11.93;;;3.30;;
57433;SDS011;43277;52.672;6.984;2023-05-31T12:15:12;7.97;;;3.40;;
57433;SDS011;43277;52.672;6.984;2023-05-31T12:17:38;10.80;;;4.15;;
57433;SDS011;43277;52.672;6.984;2023-05-31T12:20:04;9.05;;;3.50;;
57433;SDS011;43277;52.672;6.984;2023-05-31T12:22:30;9.23;;;3.55;;
57433;SDS011;43277;52.672;6.984;2023-05-31T12:24:56;8.63;;;3.53;;
57433;SDS011;43277;52.672;6.984;2023-05-31T12:27:23;10.25;;;3.70;;
57433;SDS011;43277;52.672;6.984;2023-05-31T12:29:50;8.55;;;3.80;;
57433;SDS011;43277;52.672;6.984;2023-05-31T12:32:20;10.68;;;3.67;;
57433;SDS011;43277;52.672;6.984;2023-05-31T12:34:46;9.77;;;3.42;;
57433;SDS011;43277;52.672;6.984;2023-05-31T12:37:12;9.85;;;3.20;;
57433;SDS011;43277;52.672;6.984;2023-05-31T12:39:38;8.13;;;3.83;;
57433;SDS011;43277;52.672;6.984;2023-05-31T12:42:04;10.57;;;3.58;;
57433;SDS011;43277;52.672;6.984;2023-05-31T12:44:31;10.77;;;3.03;;
57433;SDS011;43277;52.672;6.984;2023-05-31T12:46:59;11.75;;;3.88;;
57433;SDS011;43277;52.672;6.984;2023-05-31T12:49:29;11.30;;;3.28;;
57433;SDS011;43277;52.672;6.984;2023-05-31T12:52:00;9.20;;;3.40;;
57433;SDS011;43277;52.672;6.984;2023-05-31T12:54:28;7.93;;;3.00;;
57433;SDS011;43277;52.672;6.984;2023-05-31T12:56:58;10.30;;;3.80;;
57433;SDS011;43277;52.672;6.984;2023-05-31T12:59:26;10.38;;;3.50;;
57433;SDS011;43277;52.672;6.984;2023-05-31T13:01:53;9.32;;;3.70;;
57433;SDS011;43277;52.672;6.984;2023-05-31T13:04:20;9.27;;;3.53;;
57433;SDS011;43277;52.672;6.984;2023-05-31T13:06:46;8.90;;;3.15;;
57433;SDS011;43277;52.672;6.984;2023-05-31T13:09:12;11.73;;;3.45;;
57433;SDS011;43277;52.672;6.984;2023-05-31T13:11:38;8.30;;;3.35;;
57433;SDS011;43277;52.672;6.984;2023-05-31T13:14:05;8.38;;;3.40;;
57433;SDS011;43277;52.672;6.984;2023-05-31T13:16:33;12.10;;;3.90;;
57433;SDS011;43277;52.672;6.984;2023-05-31T13:19:00;11.18;;;4.00;;
57433;SDS011;43277;52.672;6.984;2023-05-31T13:21:27;8.55;;;2.88;;
57433;SDS011;43277;52.672;6.984;2023-05-31T13:23:53;9.95;;;3.28;;
57433;SDS011;43277;52.672;6.984;2023-05-31T13:26:20;8.73;;;3.60;;
57433;SDS011;43277;52.672;6.984;2023-05-31T13:28:48;12.43;;;3.33;;
57433;SDS011;43277;52.672;6.984;2023-05-31T13:31:14;10.23;;;3.38;;
57433;SDS011;43277;52.672;6.984;2023-05-31T13:33:39;9.90;;;3.20;;
57433;SDS011;43277;52.672;6.984;2023-05-31T13:36:05;9.40;;;3.90;;
57433;SDS011;43277;52.672;6.984;2023-05-31T13:38:31;7.65;;;3.33;;
57433;SDS011;43277;52.672;6.984;2023-05-31T13:40:57;8.65;;;3.63;;
57433;SDS011;43277;52.672;6.984;2023-05-31T13:43:23;7.95;;;3.20;;
57433;SDS011;43277;52.672;6.984;2023-05-31T13:45:49;8.60;;;3.35;;
57433;SDS011;43277;52.672;6.984;2023-05-31T13:48:15;11.07;;;3.92;;
57433;SDS011;43277;52.672;6.984;2023-05-31T13:50:41;8.65;;;2.90;;
57433;SDS011;43277;52.672;6.984;2023-05-31T13:53:07;8.15;;;3.00;;
57433;SDS011;43277;52.672;6.984;2023-05-31T13:55:36;8.68;;;3.10;;
57433;SDS011;43277;52.672;6.984;2023-05-31T13:58:05;7.57;;;2.90;;
57433;SDS011;43277;52.672;6.984;2023-05-31T14:00:31;6.55;;;2.70;;
57433;SDS011;43277;52.672;6.984;2023-05-31T14:02:57;9.00;;;2.60;;
57433;SDS011;43277;52.672;6.984;2023-05-31T14:05:24;7.95;;;2.38;;
57433;SDS011;43277;52.672;6.984;2023-05-31T14:07:52;8.52;;;3.15;;
57433;SDS011;43277;52.672;6.984;2023-05-31T14:10:19;8.18;;;2.95;;
57433;SDS011;43277;52.672;6.984;2023-05-31T14:12:44;8.15;;;2.60;;
57433;SDS011;43277;52.672;6.984;2023-05-31T14:15:11;8.88;;;2.67;;
57433;SDS011;43277;52.672;6.984;2023-05-31T14:17:37;10.15;;;2.33;;
57433;SDS011;43277;52.672;6.984;2023-05-31T14:20:02;6.22;;;2.42;;
57433;SDS011;43277;52.672;6.984;2023-05-31T14:22:29;6.68;;;2.35;;
57433;SDS011;43277;52.672;6.984;2023-05-31T14:24:55;7.18;;;2.00;;
57433;SDS011;43277;52.672;6.984;2023-05-31T14:27:21;11.43;;;2.30;;
57433;SDS011;43277;52.672;6.984;2023-05-31T14:29:47;8.18;;;2.55;;
57433;SDS011;43277;52.672;6.984;2023-05-31T14:32:13;9.00;;;2.13;;
57433;SDS011;43277;52.672;6.984;2023-05-31T14:34:43;7.25;;;1.90;;
57433;SDS011;43277;52.672;6.984;2023-05-31T14:37:09;6.28;;;1.80;;
57433;SDS011;43277;52.672;6.984;2023-05-31T14:39:36;9.13;;;1.70;;
57433;SDS011;43277;52.672;6.984;2023-05-31T14:42:02;7.47;;;1.98;;
57433;SDS011;43277;52.672;6.984;2023-05-31T14:44:28;7.45;;;1.98;;
57433;SDS011;43277;52.672;6.984;2023-05-31T14:46:54;8.35;;;2.00;;
57433;SDS011;43277;52.672;6.984;2023-05-31T14:49:22;8.00;;;2.15;;
57433;SDS011;43277;52.672;6.984;2023-05-31T14:51:49;7.63;;;2.33;;
57433;SDS011;43277;52.672;6.984;2023-05-31T14:54:15;7.18;;;1.85;;
57433;SDS011;43277;52.672;6.984;2023-05-31T14:56:44;7.07;;;2.03;;